sensor_id;sensor_type;location;lat;lon;timestamp;pressure;altitude;pressure_sealevel;temperature;humidity
72465;BME280;60471;52.150;4.508;2022-12-07T00:01:33;101637.47;;;6.62;79.67
72465;BME280;60471;52.150;4.508;2022-12-07T00:04:03;101641.00;;;6.59;79.55
72465;BME280;60471;52.150;4.508;2022-12-07T00:06:35;101636.69;;;6.57;79.60
72465;BME280;60471;52.150;4.508;2022-12-07T00:09:05;101638.72;;;6.87;78.29
72465;BME280;60471;52.150;4.508;2022-12-07T00:11:32;101642.78;;;7.02;77.18
72465;BME280;60471;52.150;4.508;2022-12-07T00:14:02;101645.31;;;7.08;75.46
72465;BME280;60471;52.150;4.508;2022-12-07T00:16:32;101649.56;;;7.14;75.36
72465;BME280;60471;52.150;4.508;2022-12-07T00:19:00;101641.78;;;7.09;76.01
72465;BME280;60471;52.150;4.508;2022-12-07T00:21:32;101633.09;;;7.07;76.03
72465;BME280;60471;52.150;4.508;2022-12-07T00:24:01;101626.25;;;6.98;75.44
72465;BME280;60471;52.150;4.508;2022-12-07T00:26:30;101627.19;;;6.94;75.35
72465;BME280;60471;52.150;4.508;2022-12-07T00:29:01;101623.28;;;6.72;76.24
72465;BME280;60471;52.150;4.508;2022-12-07T00:31:32;101618.78;;;6.79;75.97
72465;BME280;60471;52.150;4.508;2022-12-07T00:34:01;101625.59;;;6.89;74.98
72465;BME280;60471;52.150;4.508;2022-12-07T00:36:27;101625.44;;;6.96;74.92
72465;BME280;60471;52.150;4.508;2022-12-07T00:38:54;101639.50;;;6.92;75.69
72465;BME280;60471;52.150;4.508;2022-12-07T00:41:25;101635.25;;;6.87;76.32
72465;BME280;60471;52.150;4.508;2022-12-07T00:43:53;101636.06;;;6.89;76.12
72465;BME280;60471;52.150;4.508;2022-12-07T00:46:20;101636.47;;;7.12;75.20
72465;BME280;60471;52.150;4.508;2022-12-07T00:48:48;101631.63;;;7.34;72.88
72465;BME280;60471;52.150;4.508;2022-12-07T00:51:16;101617.28;;;7.50;69.71
72465;BME280;60471;52.150;4.508;2022-12-07T00:53:45;101619.28;;;7.39;70.73
72465;BME280;60471;52.150;4.508;2022-12-07T00:56:13;101619.19;;;7.42;70.75
72465;BME280;60471;52.150;4.508;2022-12-07T00:58:42;101621.16;;;7.33;70.06
72465;BME280;60471;52.150;4.508;2022-12-07T01:01:09;101622.03;;;7.33;70.22
72465;BME280;60471;52.150;4.508;2022-12-07T01:03:37;101626.34;;;7.36;70.51
72465;BME280;60471;52.150;4.508;2022-12-07T01:06:04;101619.72;;;7.19;72.25
72465;BME280;60471;52.150;4.508;2022-12-07T01:08:31;101622.28;;;7.21;73.20
72465;BME280;60471;52.150;4.508;2022-12-07T01:11:09;101618.53;;;6.91;75.55
72465;BME280;60471;52.150;4.508;2022-12-07T01:13:38;101618.03;;;6.74;75.99
72465;BME280;60471;52.150;4.508;2022-12-07T01:16:06;101617.38;;;6.62;74.96
72465;BME280;60471;52.150;4.508;2022-12-07T01:18:34;101621.59;;;6.69;75.77
72465;BME280;60471;52.150;4.508;2022-12-07T01:23:32;101617.09;;;6.76;76.49
72465;BME280;60471;52.150;4.508;2022-12-07T01:26:02;101618.66;;;6.86;76.14
72465;BME280;60471;52.150;4.508;2022-12-07T01:28:31;101622.34;;;6.76;76.63
72465;BME280;60471;52.150;4.508;2022-12-07T01:31:03;101633.81;;;6.71;76.98
72465;BME280;60471;52.150;4.508;2022-12-07T01:33:34;101636.38;;;6.72;76.71
72465;BME280;60471;52.150;4.508;2022-12-07T01:36:04;101628.53;;;6.72;76.03
72465;BME280;60471;52.150;4.508;2022-12-07T01:38:32;101639.53;;;6.91;74.17
72465;BME280;60471;52.150;4.508;2022-12-07T01:41:00;101631.81;;;7.25;72.58
72465;BME280;60471;52.150;4.508;2022-12-07T01:43:29;101629.53;;;7.10;74.23
72465;BME280;60471;52.150;4.508;2022-12-07T01:45:56;101628.66;;;7.09;74.66
72465;BME280;60471;52.150;4.508;2022-12-07T01:48:29;101618.34;;;7.00;75.11
72465;BME280;60471;52.150;4.508;2022-12-07T01:51:09;101609.88;;;6.87;75.65
72465;BME280;60471;52.150;4.508;2022-12-07T01:53:42;101615.78;;;6.54;76.80
72465;BME280;60471;52.150;4.508;2022-12-07T01:56:17;101615.63;;;6.63;75.98
72465;BME280;60471;52.150;4.508;2022-12-07T01:58:46;101614.63;;;6.68;74.64
72465;BME280;60471;52.150;4.508;2022-12-07T02:01:14;101605.88;;;6.68;74.16
72465;BME280;60471;52.150;4.508;2022-12-07T02:03:42;101607.47;;;6.77;73.56
72465;BME280;60471;52.150;4.508;2022-12-07T02:06:12;101599.81;;;6.66;73.72
72465;BME280;60471;52.150;4.508;2022-12-07T02:08:45;101607.53;;;6.74;74.45
72465;BME280;60471;52.150;4.508;2022-12-07T02:11:12;101604.47;;;6.95;74.30
72465;BME280;60471;52.150;4.508;2022-12-07T02:13:41;101612.34;;;6.95;74.24
72465;BME280;60471;52.150;4.508;2022-12-07T02:16:25;101613.47;;;6.82;75.47
72465;BME280;60471;52.150;4.508;2022-12-07T02:22:45;101606.28;;;7.33;72.87
72465;BME280;60471;52.150;4.508;2022-12-07T02:31:43;101606.69;;;7.53;73.09
72465;BME280;60471;52.150;4.508;2022-12-07T02:34:25;101602.75;;;7.34;73.91
72465;BME280;60471;52.150;4.508;2022-12-07T02:37:03;101588.72;;;7.35;74.22
72465;BME280;60471;52.150;4.508;2022-12-07T02:39:46;101585.41;;;7.27;74.72
72465;BME280;60471;52.150;4.508;2022-12-07T02:42:30;101594.22;;;7.24;74.95
72465;BME280;60471;52.150;4.508;2022-12-07T02:45:04;101593.38;;;7.22;75.12
72465;BME280;60471;52.150;4.508;2022-12-07T02:47:33;101595.88;;;7.29;75.46
72465;BME280;60471;52.150;4.508;2022-12-07T02:50:04;101595.22;;;7.19;75.81
72465;BME280;60471;52.150;4.508;2022-12-07T02:52:32;101603.28;;;7.10;76.53
72465;BME280;60471;52.150;4.508;2022-12-07T02:54:58;101595.91;;;7.27;76.31
72465;BME280;60471;52.150;4.508;2022-12-07T03:00:15;101588.59;;;7.41;75.41
72465;BME280;60471;52.150;4.508;2022-12-07T03:03:13;101594.09;;;7.68;73.91
72465;BME280;60471;52.150;4.508;2022-12-07T03:05:59;101596.06;;;7.58;73.79
72465;BME280;60471;52.150;4.508;2022-12-07T03:09:14;101607.91;;;7.37;74.45
72465;BME280;60471;52.150;4.508;2022-12-07T03:12:00;101607.28;;;7.26;73.55
72465;BME280;60471;52.150;4.508;2022-12-07T03:14:40;101599.69;;;7.14;74.49
72465;BME280;60471;52.150;4.508;2022-12-07T03:17:15;101597.03;;;7.17;74.35
72465;BME280;60471;52.150;4.508;2022-12-07T03:19:48;101597.28;;;7.03;74.59
72465;BME280;60471;52.150;4.508;2022-12-07T03:22:19;101592.63;;;6.76;75.75
72465;BME280;60471;52.150;4.508;2022-12-07T03:24:51;101595.22;;;6.77;75.63
72465;BME280;60471;52.150;4.508;2022-12-07T03:27:32;101586.59;;;6.71;75.85
72465;BME280;60471;52.150;4.508;2022-12-07T03:30:06;101591.59;;;6.83;75.60
72465;BME280;60471;52.150;4.508;2022-12-07T03:32:37;101583.28;;;7.06;73.65
72465;BME280;60471;52.150;4.508;2022-12-07T03:35:12;101588.16;;;7.21;72.17
72465;BME280;60471;52.150;4.508;2022-12-07T03:40:40;101575.16;;;7.15;71.84
72465;BME280;60471;52.150;4.508;2022-12-07T03:43:09;101582.38;;;7.07;71.73
72465;BME280;60471;52.150;4.508;2022-12-07T03:45:44;101574.50;;;7.05;71.73
72465;BME280;60471;52.150;4.508;2022-12-07T03:48:33;101578.09;;;7.01;71.98
72465;BME280;60471;52.150;4.508;2022-12-07T03:51:14;101578.78;;;7.11;71.52
72465;BME280;60471;52.150;4.508;2022-12-07T03:53:52;101574.44;;;7.10;71.29
72465;BME280;60471;52.150;4.508;2022-12-07T03:56:36;101571.25;;;6.94;71.64
72465;BME280;60471;52.150;4.508;2022-12-07T03:59:03;101569.13;;;7.11;70.89
72465;BME280;60471;52.150;4.508;2022-12-07T04:01:31;101574.28;;;7.16;70.38
72465;BME280;60471;52.150;4.508;2022-12-07T04:03:57;101567.03;;;7.27;69.44
72465;BME280;60471;52.150;4.508;2022-12-07T04:06:24;101570.28;;;7.38;68.40
72465;BME280;60471;52.150;4.508;2022-12-07T04:08:50;101562.25;;;7.44;67.20
72465;BME280;60471;52.150;4.508;2022-12-07T04:11:16;101563.09;;;7.46;67.22
72465;BME280;60471;52.150;4.508;2022-12-07T04:13:42;101564.28;;;7.69;65.73
72465;BME280;60471;52.150;4.508;2022-12-07T04:16:27;101555.19;;;7.46;64.17
72465;BME280;60471;52.150;4.508;2022-12-07T04:18:53;101558.03;;;7.37;64.42
72465;BME280;60471;52.150;4.508;2022-12-07T04:21:19;101578.84;;;7.08;66.99
72465;BME280;60471;52.150;4.508;2022-12-07T04:23:46;101572.13;;;6.93;68.65
72465;BME280;60471;52.150;4.508;2022-12-07T04:26:12;101562.72;;;6.84;69.88
72465;BME280;60471;52.150;4.508;2022-12-07T04:28:38;101568.13;;;6.77;71.00
72465;BME280;60471;52.150;4.508;2022-12-07T04:31:04;101563.66;;;6.80;71.66
72465;BME280;60471;52.150;4.508;2022-12-07T04:33:30;101567.50;;;6.64;72.58
72465;BME280;60471;52.150;4.508;2022-12-07T04:35:57;101559.03;;;6.51;73.10
72465;BME280;60471;52.150;4.508;2022-12-07T04:38:23;101561.94;;;6.36;74.69
72465;BME280;60471;52.150;4.508;2022-12-07T04:40:49;101560.25;;;6.33;74.67
72465;BME280;60471;52.150;4.508;2022-12-07T04:43:15;101555.22;;;6.21;75.67
72465;BME280;60471;52.150;4.508;2022-12-07T04:45:48;101558.38;;;6.38;76.03
72465;BME280;60471;52.150;4.508;2022-12-07T04:48:14;101560.72;;;6.54;75.15
72465;BME280;60471;52.150;4.508;2022-12-07T04:50:41;101555.22;;;6.66;73.94
72465;BME280;60471;52.150;4.508;2022-12-07T04:53:07;101549.00;;;6.70;73.19
72465;BME280;60471;52.150;4.508;2022-12-07T04:55:33;101540.00;;;6.83;70.07
72465;BME280;60471;52.150;4.508;2022-12-07T04:57:59;101547.81;;;6.86;69.53
72465;BME280;60471;52.150;4.508;2022-12-07T05:00:25;101545.75;;;7.01;68.59
72465;BME280;60471;52.150;4.508;2022-12-07T05:02:52;101548.38;;;7.01;67.94
72465;BME280;60471;52.150;4.508;2022-12-07T05:05:18;101530.28;;;6.88;68.30
72465;BME280;60471;52.150;4.508;2022-12-07T05:07:44;101535.41;;;6.93;68.55
72465;BME280;60471;52.150;4.508;2022-12-07T05:10:10;101530.88;;;7.01;68.21
72465;BME280;60471;52.150;4.508;2022-12-07T05:12:36;101532.31;;;7.14;68.09
72465;BME280;60471;52.150;4.508;2022-12-07T05:15:04;101531.63;;;7.08;68.65
72465;BME280;60471;52.150;4.508;2022-12-07T05:17:30;101528.28;;;7.00;68.96
72465;BME280;60471;52.150;4.508;2022-12-07T05:19:56;101528.22;;;7.03;68.90
72465;BME280;60471;52.150;4.508;2022-12-07T05:22:22;101535.38;;;6.96;69.27
72465;BME280;60471;52.150;4.508;2022-12-07T05:24:51;101532.03;;;6.88;69.16
72465;BME280;60471;52.150;4.508;2022-12-07T05:27:17;101539.91;;;6.88;69.63
72465;BME280;60471;52.150;4.508;2022-12-07T05:29:43;101538.06;;;6.91;69.24
72465;BME280;60471;52.150;4.508;2022-12-07T05:32:09;101542.78;;;6.76;69.69
72465;BME280;60471;52.150;4.508;2022-12-07T05:34:35;101538.59;;;6.67;69.89
72465;BME280;60471;52.150;4.508;2022-12-07T05:37:02;101545.59;;;6.66;69.82
72465;BME280;60471;52.150;4.508;2022-12-07T05:39:28;101545.31;;;6.80;69.48
72465;BME280;60471;52.150;4.508;2022-12-07T05:41:54;101545.41;;;6.76;69.99
72465;BME280;60471;52.150;4.508;2022-12-07T05:44:40;101540.25;;;6.71;70.53
72465;BME280;60471;52.150;4.508;2022-12-07T05:47:07;101539.44;;;6.69;71.07
72465;BME280;60471;52.150;4.508;2022-12-07T05:49:34;101545.84;;;6.54;71.95
72465;BME280;60471;52.150;4.508;2022-12-07T05:52:00;101544.44;;;6.36;73.32
72465;BME280;60471;52.150;4.508;2022-12-07T05:54:27;101537.22;;;6.48;72.70
72465;BME280;60471;52.150;4.508;2022-12-07T05:56:54;101542.91;;;6.25;73.70
72465;BME280;60471;52.150;4.508;2022-12-07T05:59:20;101542.84;;;6.28;74.03
72465;BME280;60471;52.150;4.508;2022-12-07T06:01:54;101533.25;;;6.27;74.10
72465;BME280;60471;52.150;4.508;2022-12-07T06:04:31;101538.44;;;6.31;73.74
72465;BME280;60471;52.150;4.508;2022-12-07T06:07:00;101529.59;;;6.37;73.05
72465;BME280;60471;52.150;4.508;2022-12-07T06:09:27;101536.41;;;6.46;72.74
72465;BME280;60471;52.150;4.508;2022-12-07T06:11:55;101537.84;;;6.60;72.04
72465;BME280;60471;52.150;4.508;2022-12-07T06:14:41;101535.22;;;6.60;71.79
72465;BME280;60471;52.150;4.508;2022-12-07T06:17:07;101534.09;;;6.74;71.08
72465;BME280;60471;52.150;4.508;2022-12-07T06:19:34;101531.41;;;6.77;71.20
72465;BME280;60471;52.150;4.508;2022-12-07T06:22:01;101533.69;;;6.92;70.73
72465;BME280;60471;52.150;4.508;2022-12-07T06:24:28;101532.47;;;7.08;70.66
72465;BME280;60471;52.150;4.508;2022-12-07T06:26:54;101538.09;;;7.30;69.17
72465;BME280;60471;52.150;4.508;2022-12-07T06:29:20;101555.91;;;7.16;70.09
72465;BME280;60471;52.150;4.508;2022-12-07T06:31:47;101557.00;;;7.07;70.97
72465;BME280;60471;52.150;4.508;2022-12-07T06:34:16;101549.47;;;7.31;70.05
72465;BME280;60471;52.150;4.508;2022-12-07T06:36:46;101540.28;;;7.11;71.00
72465;BME280;60471;52.150;4.508;2022-12-07T06:39:18;101540.34;;;7.08;71.95
72465;BME280;60471;52.150;4.508;2022-12-07T06:41:45;101550.88;;;7.05;72.04
72465;BME280;60471;52.150;4.508;2022-12-07T06:44:11;101549.38;;;6.93;72.35
72465;BME280;60471;52.150;4.508;2022-12-07T06:46:38;101555.81;;;6.80;72.98
72465;BME280;60471;52.150;4.508;2022-12-07T06:49:04;101545.63;;;6.65;73.34
72465;BME280;60471;52.150;4.508;2022-12-07T06:51:32;101546.72;;;6.55;73.86
72465;BME280;60471;52.150;4.508;2022-12-07T06:53:59;101554.00;;;6.41;74.31
72465;BME280;60471;52.150;4.508;2022-12-07T06:56:25;101547.00;;;6.41;74.59
72465;BME280;60471;52.150;4.508;2022-12-07T06:58:51;101550.28;;;6.52;73.88
72465;BME280;60471;52.150;4.508;2022-12-07T07:01:18;101548.19;;;6.68;73.03
72465;BME280;60471;52.150;4.508;2022-12-07T07:03:45;101547.97;;;6.79;72.00
72465;BME280;60471;52.150;4.508;2022-12-07T07:06:13;101547.66;;;6.92;71.76
72465;BME280;60471;52.150;4.508;2022-12-07T07:08:39;101540.28;;;7.11;70.13
72465;BME280;60471;52.150;4.508;2022-12-07T07:11:07;101541.16;;;7.47;68.27
72465;BME280;60471;52.150;4.508;2022-12-07T07:13:34;101546.97;;;7.24;69.11
72465;BME280;60471;52.150;4.508;2022-12-07T07:16:00;101547.16;;;7.17;69.75
72465;BME280;60471;52.150;4.508;2022-12-07T07:18:27;101550.41;;;7.28;69.35
72465;BME280;60471;52.150;4.508;2022-12-07T07:20:54;101552.41;;;7.17;70.10
72465;BME280;60471;52.150;4.508;2022-12-07T07:23:20;101550.06;;;7.03;70.72
72465;BME280;60471;52.150;4.508;2022-12-07T07:25:47;101554.44;;;7.03;71.35
72465;BME280;60471;52.150;4.508;2022-12-07T07:28:14;101554.69;;;6.92;71.99
72465;BME280;60471;52.150;4.508;2022-12-07T07:30:41;101561.84;;;6.85;72.57
72465;BME280;60471;52.150;4.508;2022-12-07T07:33:07;101561.88;;;6.84;72.71
72465;BME280;60471;52.150;4.508;2022-12-07T07:35:34;101554.97;;;6.78;73.21
72465;BME280;60471;52.150;4.508;2022-12-07T07:38:01;101546.41;;;6.70;73.14
72465;BME280;60471;52.150;4.508;2022-12-07T07:40:28;101555.91;;;6.76;72.52
72465;BME280;60471;52.150;4.508;2022-12-07T07:42:56;101553.47;;;6.66;73.04
72465;BME280;60471;52.150;4.508;2022-12-07T07:45:24;101555.22;;;6.66;73.49
72465;BME280;60471;52.150;4.508;2022-12-07T07:47:51;101555.16;;;6.69;73.08
72465;BME280;60471;52.150;4.508;2022-12-07T07:50:18;101552.69;;;6.63;72.86
72465;BME280;60471;52.150;4.508;2022-12-07T07:52:45;101556.97;;;6.67;73.02
72465;BME280;60471;52.150;4.508;2022-12-07T07:55:12;101555.00;;;6.77;72.15
72465;BME280;60471;52.150;4.508;2022-12-07T07:57:39;101554.63;;;6.93;70.96
72465;BME280;60471;52.150;4.508;2022-12-07T08:00:11;101542.03;;;7.11;69.41
72465;BME280;60471;52.150;4.508;2022-12-07T08:02:39;101557.53;;;7.21;68.73
72465;BME280;60471;52.150;4.508;2022-12-07T08:05:10;101571.81;;;7.10;68.38
72465;BME280;60471;52.150;4.508;2022-12-07T08:07:37;101566.16;;;6.88;69.61
72465;BME280;60471;52.150;4.508;2022-12-07T08:10:04;101577.69;;;6.79;70.47
72465;BME280;60471;52.150;4.508;2022-12-07T08:12:36;101576.03;;;6.75;71.42
72465;BME280;60471;52.150;4.508;2022-12-07T08:15:03;101556.63;;;6.82;71.84
72465;BME280;60471;52.150;4.508;2022-12-07T08:17:30;101561.38;;;6.65;72.31
72465;BME280;60471;52.150;4.508;2022-12-07T08:19:56;101555.44;;;6.55;72.50
72465;BME280;60471;52.150;4.508;2022-12-07T08:22:22;101555.31;;;6.63;72.27
72465;BME280;60471;52.150;4.508;2022-12-07T08:24:48;101563.88;;;6.69;71.22
72465;BME280;60471;52.150;4.508;2022-12-07T08:27:14;101553.88;;;6.88;70.55
72465;BME280;60471;52.150;4.508;2022-12-07T08:29:41;101560.75;;;6.95;70.10
72465;BME280;60471;52.150;4.508;2022-12-07T08:32:07;101562.47;;;6.96;70.31
72465;BME280;60471;52.150;4.508;2022-12-07T08:34:33;101553.91;;;7.27;70.24
72465;BME280;60471;52.150;4.508;2022-12-07T08:37:00;101557.75;;;7.51;68.16
72465;BME280;60471;52.150;4.508;2022-12-07T08:39:26;101558.44;;;7.57;67.24
72465;BME280;60471;52.150;4.508;2022-12-07T08:41:52;101557.44;;;7.63;67.47
72465;BME280;60471;52.150;4.508;2022-12-07T08:44:19;101564.63;;;7.91;66.76
72465;BME280;60471;52.150;4.508;2022-12-07T08:46:53;101558.38;;;7.96;65.71
72465;BME280;60471;52.150;4.508;2022-12-07T08:49:45;101555.09;;;8.21;64.61
72465;BME280;60471;52.150;4.508;2022-12-07T08:52:17;101554.47;;;8.45;63.99
72465;BME280;60471;52.150;4.508;2022-12-07T08:54:44;101557.69;;;8.55;63.48
72465;BME280;60471;52.150;4.508;2022-12-07T08:57:12;101565.25;;;8.36;63.57
72465;BME280;60471;52.150;4.508;2022-12-07T08:59:38;101554.09;;;8.26;64.05
72465;BME280;60471;52.150;4.508;2022-12-07T09:02:04;101560.41;;;8.19;64.26
72465;BME280;60471;52.150;4.508;2022-12-07T09:04:31;101549.81;;;7.88;65.10
72465;BME280;60471;52.150;4.508;2022-12-07T09:06:58;101561.50;;;7.76;66.33
72465;BME280;60471;52.150;4.508;2022-12-07T09:09:25;101563.59;;;7.62;67.29
72465;BME280;60471;52.150;4.508;2022-12-07T09:11:51;101561.88;;;7.61;67.92
72465;BME280;60471;52.150;4.508;2022-12-07T09:14:17;101548.75;;;7.61;67.95
72465;BME280;60471;52.150;4.508;2022-12-07T09:16:44;101560.88;;;7.65;67.94
72465;BME280;60471;52.150;4.508;2022-12-07T09:19:10;101553.88;;;7.66;68.08
72465;BME280;60471;52.150;4.508;2022-12-07T09:21:37;101556.50;;;7.66;67.85
72465;BME280;60471;52.150;4.508;2022-12-07T09:24:03;101561.78;;;7.64;68.24
72465;BME280;60471;52.150;4.508;2022-12-07T09:26:29;101563.38;;;7.70;68.99
72465;BME280;60471;52.150;4.508;2022-12-07T09:28:55;101555.63;;;8.33;68.75
72465;BME280;60471;52.150;4.508;2022-12-07T09:31:22;101552.06;;;10.07;64.02
72465;BME280;60471;52.150;4.508;2022-12-07T09:33:53;101551.91;;;11.31;58.74
72465;BME280;60471;52.150;4.508;2022-12-07T09:36:23;101546.13;;;12.67;55.49
72465;BME280;60471;52.150;4.508;2022-12-07T09:38:50;101551.38;;;13.44;53.18
72465;BME280;60471;52.150;4.508;2022-12-07T09:41:17;101538.97;;;13.98;49.91
72465;BME280;60471;52.150;4.508;2022-12-07T09:43:44;101544.63;;;12.81;52.73
72465;BME280;60471;52.150;4.508;2022-12-07T09:46:15;101557.53;;;11.66;55.43
72465;BME280;60471;52.150;4.508;2022-12-07T09:48:45;101552.31;;;10.74;58.49
72465;BME280;60471;52.150;4.508;2022-12-07T09:51:19;101549.00;;;10.19;60.40
72465;BME280;60471;52.150;4.508;2022-12-07T09:53:48;101541.13;;;9.93;61.11
72465;BME280;60471;52.150;4.508;2022-12-07T09:56:17;101545.41;;;9.70;62.40
72465;BME280;60471;52.150;4.508;2022-12-07T09:58:45;101548.84;;;9.46;63.25
72465;BME280;60471;52.150;4.508;2022-12-07T10:01:17;101543.34;;;10.31;61.64
72465;BME280;60471;52.150;4.508;2022-12-07T10:03:54;101540.28;;;10.90;59.34
72465;BME280;60471;52.150;4.508;2022-12-07T10:06:24;101529.28;;;13.26;53.08
72465;BME280;60471;52.150;4.508;2022-12-07T10:08:50;101532.63;;;14.35;47.90
72465;BME280;60471;52.150;4.508;2022-12-07T10:11:17;101525.97;;;12.84;50.39
72465;BME280;60471;52.150;4.508;2022-12-07T10:13:49;101526.00;;;12.04;53.52
72465;BME280;60471;52.150;4.508;2022-12-07T10:16:40;101530.50;;;11.38;55.98
72465;BME280;60471;52.150;4.508;2022-12-07T10:19:29;101530.63;;;11.35;55.79
72465;BME280;60471;52.150;4.508;2022-12-07T10:24:30;101521.97;;;11.31;55.07
72465;BME280;60471;52.150;4.508;2022-12-07T10:26:57;101518.97;;;11.18;55.06
72465;BME280;60471;52.150;4.508;2022-12-07T10:29:37;101517.41;;;11.35;55.14
72465;BME280;60471;52.150;4.508;2022-12-07T10:34:40;101511.13;;;12.22;52.71
72465;BME280;60471;52.150;4.508;2022-12-07T10:39:46;101504.16;;;11.78;52.83
72465;BME280;60471;52.150;4.508;2022-12-07T10:42:30;101501.75;;;11.08;55.05
72465;BME280;60471;52.150;4.508;2022-12-07T10:45:14;101494.41;;;12.98;50.20
72465;BME280;60471;52.150;4.508;2022-12-07T10:53:39;101476.03;;;19.35;35.02
72465;BME280;60471;52.150;4.508;2022-12-07T10:56:31;101464.75;;;20.80;32.37
72465;BME280;60471;52.150;4.508;2022-12-07T11:05:49;101460.94;;;19.10;32.46
72465;BME280;60471;52.150;4.508;2022-12-07T11:11:53;101459.41;;;12.72;46.42
72465;BME280;60471;52.150;4.508;2022-12-07T11:15:04;101463.44;;;10.28;52.62
72465;BME280;60471;52.150;4.508;2022-12-07T11:18:00;101468.88;;;9.73;53.83
72465;BME280;60471;52.150;4.508;2022-12-07T11:23:48;101460.34;;;10.40;52.51
72465;BME280;60471;52.150;4.508;2022-12-07T11:32:53;101458.63;;;10.86;51.41
72465;BME280;60471;52.150;4.508;2022-12-07T11:35:31;101445.69;;;10.08;54.33
72465;BME280;60471;52.150;4.508;2022-12-07T11:40:45;101456.34;;;9.00;57.89
72465;BME280;60471;52.150;4.508;2022-12-07T11:43:21;101461.75;;;9.24;56.50
72465;BME280;60471;52.150;4.508;2022-12-07T11:46:05;101460.53;;;9.61;55.76
72465;BME280;60471;52.150;4.508;2022-12-07T11:51:42;101451.22;;;8.96;57.92
72465;BME280;60471;52.150;4.508;2022-12-07T11:54:27;101449.53;;;8.65;59.29
72465;BME280;60471;52.150;4.508;2022-12-07T11:57:03;101451.41;;;8.62;60.59
72465;BME280;60471;52.150;4.508;2022-12-07T11:59:39;101455.22;;;8.81;60.70
72465;BME280;60471;52.150;4.508;2022-12-07T12:02:16;101441.75;;;8.31;62.71
72465;BME280;60471;52.150;4.508;2022-12-07T12:04:58;101438.47;;;8.23;64.49
72465;BME280;60471;52.150;4.508;2022-12-07T12:07:54;101434.38;;;8.44;64.00
72465;BME280;60471;52.150;4.508;2022-12-07T12:10:40;101431.19;;;8.92;62.71
72465;BME280;60471;52.150;4.508;2022-12-07T12:16:06;101420.72;;;13.06;51.69
72465;BME280;60471;52.150;4.508;2022-12-07T12:21:55;101416.34;;;15.81;44.81
72465;BME280;60471;52.150;4.508;2022-12-07T12:24:31;101408.75;;;17.93;39.63
72465;BME280;60471;52.150;4.508;2022-12-07T12:27:07;101397.47;;;20.05;35.07
72465;BME280;60471;52.150;4.508;2022-12-07T12:29:41;101399.31;;;20.05;35.46
72465;BME280;60471;52.150;4.508;2022-12-07T12:32:38;101396.28;;;18.56;37.57
72465;BME280;60471;52.150;4.508;2022-12-07T12:37:54;101378.34;;;22.53;31.03
72465;BME280;60471;52.150;4.508;2022-12-07T12:42:49;101381.88;;;19.77;35.19
72465;BME280;60471;52.150;4.508;2022-12-07T12:45:27;101386.69;;;15.43;42.02
72465;BME280;60471;52.150;4.508;2022-12-07T12:48:03;101390.56;;;12.72;45.94
72465;BME280;60471;52.150;4.508;2022-12-07T12:50:35;101385.03;;;12.58;48.13
72465;BME280;60471;52.150;4.508;2022-12-07T12:53:21;101381.44;;;11.84;50.57
72465;BME280;60471;52.150;4.508;2022-12-07T13:01:47;101375.28;;;11.00;51.67
72465;BME280;60471;52.150;4.508;2022-12-07T13:04:24;101374.75;;;10.70;53.03
72465;BME280;60471;52.150;4.508;2022-12-07T13:06:54;101363.81;;;10.80;51.73
72465;BME280;60471;52.150;4.508;2022-12-07T13:09:23;101359.72;;;11.15;51.02
72465;BME280;60471;52.150;4.508;2022-12-07T13:12:00;101364.53;;;11.05;50.50
72465;BME280;60471;52.150;4.508;2022-12-07T13:17:54;101359.97;;;10.66;51.04
72465;BME280;60471;52.150;4.508;2022-12-07T13:20:05;101346.63;;;10.48;51.65
72465;BME280;60471;52.150;4.508;2022-12-07T13:28:01;101347.78;;;10.62;51.74
72465;BME280;60471;52.150;4.508;2022-12-07T13:31:29;101358.31;;;9.94;54.26
72465;BME280;60471;52.150;4.508;2022-12-07T13:37:25;101343.41;;;9.19;58.14
72465;BME280;60471;52.150;4.508;2022-12-07T13:39:56;101355.41;;;9.53;58.01
72465;BME280;60471;52.150;4.508;2022-12-07T13:45:00;101333.06;;;10.35;54.61
72465;BME280;60471;52.150;4.508;2022-12-07T13:47:52;101332.31;;;10.97;52.58
72465;BME280;60471;52.150;4.508;2022-12-07T13:50:30;101324.78;;;10.88;52.17
72465;BME280;60471;52.150;4.508;2022-12-07T13:52:59;101328.72;;;10.78;51.02
72465;BME280;60471;52.150;4.508;2022-12-07T13:55:28;101319.63;;;10.17;52.05
72465;BME280;60471;52.150;4.508;2022-12-07T13:57:55;101317.97;;;10.15;52.77
72465;BME280;60471;52.150;4.508;2022-12-07T14:00:23;101328.00;;;10.05;53.04
72465;BME280;60471;52.150;4.508;2022-12-07T14:05:30;101322.72;;;10.94;51.76
72465;BME280;60471;52.150;4.508;2022-12-07T14:08:03;101311.53;;;12.46;48.13
72465;BME280;60471;52.150;4.508;2022-12-07T14:13:37;101311.84;;;12.02;47.68
72465;BME280;60471;52.150;4.508;2022-12-07T14:16:34;101309.88;;;11.27;49.51
72465;BME280;60471;52.150;4.508;2022-12-07T14:19:04;101306.66;;;10.79;51.23
72465;BME280;60471;52.150;4.508;2022-12-07T14:22:06;101300.19;;;10.20;53.09
72465;BME280;60471;52.150;4.508;2022-12-07T14:24:43;101303.19;;;9.87;54.11
72465;BME280;60471;52.150;4.508;2022-12-07T14:27:22;101303.69;;;9.50;55.75
72465;BME280;60471;52.150;4.508;2022-12-07T14:29:56;101297.28;;;9.57;55.57
72465;BME280;60471;52.150;4.508;2022-12-07T14:32:24;101295.25;;;9.41;56.14
72465;BME280;60471;52.150;4.508;2022-12-07T14:34:57;101294.84;;;9.03;57.35
72465;BME280;60471;52.150;4.508;2022-12-07T14:37:24;101289.41;;;9.08;57.56
72465;BME280;60471;52.150;4.508;2022-12-07T14:39:51;101296.44;;;9.07;57.63
72465;BME280;60471;52.150;4.508;2022-12-07T14:42:17;101291.66;;;8.93;58.34
72465;BME280;60471;52.150;4.508;2022-12-07T14:44:44;101287.72;;;8.80;58.37
72465;BME280;60471;52.150;4.508;2022-12-07T14:47:10;101282.63;;;9.00;57.86
72465;BME280;60471;52.150;4.508;2022-12-07T14:49:37;101282.97;;;8.90;57.77
72465;BME280;60471;52.150;4.508;2022-12-07T14:52:04;101284.41;;;8.74;57.98
72465;BME280;60471;52.150;4.508;2022-12-07T14:54:37;101286.88;;;8.78;57.52